Storm Events Database

Event Details

Event Thunderstorm Wind
Magnitude 50 kts.
State MISSISSIPPI
County/Area FORREST
WFO JAN
Begin Date 06/25/2008 12:55:00 CST-6
Begin Range 6
Begin Azimuth SSW
Begin Location BONHOMIE
Begin Lat/Lon 31.2/-89.37
End Date 06/25/2008 12:55:00 CST-6
Deaths Direct/Indirect 0/0 (fatality details below, when available...)
Injuries Direct/Indirect 0/0
Property Damage 0.00K
Crop Damage 0.00K
Episode Narrative Numerous thunderstorms developed across the region on Wednesday June 25th. The atmosphere was very unstable and many of the storms reached severe limits and produced hail and damaging wind gusts. The overwhelming majority of the severe storms were across areas along and south of Interstate 20. Thunderstorms began early, developing between 11 am and noon and continued through late afternoon. The most significant damage was around Wesson where 85 mph winds occurred and golf ball sized hail.
Event Narrative Three trees were blown down near the EOC office along Highway 11.


All events for this episode:

Location County/Zone St. Date Time T.Z. Type Mag Dth Inj PrD CrD
Totals: 0 0 759.00K 7.00K
STUMPLEY JEFFERSON CO. MS 06/25/2008 11:09 CST-6 Thunderstorm Wind 50 kts. EG 0 0 0.00K 0.00K
QUENTIN FRANKLIN CO. MS 06/25/2008 11:30 CST-6 Hail 1.00 in. 0 0 0.00K 0.00K
RUTH LINCOLN CO. MS 06/25/2008 11:40 CST-6 Hail 0.75 in. 0 0 0.00K 0.00K
ELMO JEFFERSON CO. MS 06/25/2008 11:45 CST-6 Hail 0.88 in. 0 0 0.00K 0.00K
ENTERPRISE LINCOLN CO. MS 06/25/2008 12:00 CST-6 Lightning 0 0 0.00K 7.00K
CASEYVILLE LINCOLN CO. MS 06/25/2008 12:02 CST-6 Hail 0.75 in. 0 0 0.00K 0.00K
MAXIE FORREST CO. MS 06/25/2008 12:06 CST-6 Hail 0.75 in. 0 0 0.00K 0.00K
MORGANTOWN MARION CO. MS 06/25/2008 12:15 CST-6 Thunderstorm Wind 53 kts. EG 0 0 0.00K 0.00K
NEW SIGHT LINCOLN CO. MS 06/25/2008 12:15 CST-6 Hail 0.75 in. 0 0 0.00K 0.00K
BOWERTON COPIAH CO. MS 06/25/2008 12:19 CST-6 Hail 0.88 in. 0 0 0.00K 0.00K
BROOKHAVEN LINCOLN CO. MS 06/25/2008 12:19 CST-6 Hail 0.75 in. 0 0 0.00K 0.00K
CAYUGA HINDS CO. MS 06/25/2008 12:30 CST-6 Hail 0.75 in. 0 0 0.00K 0.00K
CAYUGA HINDS CO. MS 06/25/2008 12:30 CST-6 Thunderstorm Wind 50 kts. EG 0 0 25.00K 0.00K
HEUCKS LINCOLN CO. MS 06/25/2008 12:31 CST-6 Hail 1.00 in. 0 0 0.00K 0.00K
WESSON COPIAH CO. MS 06/25/2008 12:34 CST-6 Thunderstorm Wind 74 kts. EG 0 0 700.00K 0.00K
WESSON COPIAH CO. MS 06/25/2008 12:35 CST-6 Hail 1.75 in. 0 0 15.00K 0.00K
BONHOMIE FORREST CO. MS 06/25/2008 12:55 CST-6 Thunderstorm Wind 50 kts. EG 0 0 0.00K 0.00K
HOPEWELL COPIAH CO. MS 06/25/2008 12:57 CST-6 Hail 0.75 in. 0 0 0.00K 0.00K
PURVIS LAMAR CO. MS 06/25/2008 12:58 CST-6 Thunderstorm Wind 50 kts. EG 0 0 4.00K 0.00K
HOPEWELL COPIAH CO. MS 06/25/2008 13:00 CST-6 Thunderstorm Wind 57 kts. EG 0 0 2.00K 0.00K
LEARNED HINDS CO. MS 06/25/2008 13:01 CST-6 Hail 0.75 in. 0 0 0.00K 0.00K
PEARL SIMPSON CO. MS 06/25/2008 13:05 CST-6 Hail 0.75 in. 0 0 0.00K 0.00K
PINEBUR MARION CO. MS 06/25/2008 13:15 CST-6 Hail 1.00 in. 0 0 0.00K 0.00K
WHITES RANKIN CO. MS 06/25/2008 13:15 CST-6 Hail 0.75 in. 0 0 0.00K 0.00K
PINOLA SIMPSON CO. MS 06/25/2008 13:32 CST-6 Hail 1.00 in. 0 0 0.00K 0.00K
SAXON MARION CO. MS 06/25/2008 13:48 CST-6 Hail 0.75 in. 0 0 0.00K 0.00K
TWIN MARION CO. MS 06/25/2008 13:50 CST-6 Thunderstorm Wind 60 kts. EG 0 0 11.00K 0.00K
TWIN MARION CO. MS 06/25/2008 13:50 CST-6 Hail 0.75 in. 0 0 0.00K 0.00K
MARTINVILLE SIMPSON CO. MS 06/25/2008 14:00 CST-6 Thunderstorm Wind 50 kts. EG 0 0 0.00K 0.00K
ROBINSON SPGS MADISON CO. MS 06/25/2008 14:00 CST-6 Hail 0.75 in. 0 0 0.00K 0.00K
GUNN SMITH CO. MS 06/25/2008 14:05 CST-6 Hail 0.75 in. 0 0 0.00K 0.00K
HOT COFFEE COVINGTON CO. MS 06/25/2008 14:10 CST-6 Thunderstorm Wind 60 kts. EG 0 0 2.00K 0.00K
HOT COFFEE COVINGTON CO. MS 06/25/2008 14:10 CST-6 Hail 0.75 in. 0 0 0.00K 0.00K
LEESBURG RANKIN CO. MS 06/25/2008 14:15 CST-6 Hail 0.75 in. 0 0 0.00K 0.00K
TAYLORSVILLE SMITH CO. MS 06/25/2008 14:25 CST-6 Hail 1.00 in. 0 0 0.00K 0.00K
SHARON MADISON CO. MS 06/25/2008 14:40 CST-6 Hail 0.75 in. 0 0 0.00K 0.00K
LUDLOW SCOTT CO. MS 06/25/2008 14:52 CST-6 Hail 0.75 in. 0 0 0.00K 0.00K
ALLIGATOR BOLIVAR CO. MS 06/25/2008 18:45 CST-6 Hail 0.75 in. 0 0 0.00K 0.00K
Totals: 0 0 759.00K 7.00K